LFPM 171230Z AUTO VRB03KT CAVOK 25/11 Q1021

Contactez-Nous
Toutes les informations utiles sont sur ce site,
pour en savoir plus

Vous pouvez nous joindre de 15h à 18h tous les jours au 01 60 05 37 33

Merci.

Liens externes